Maidens, Virginia
Current Conditions -  °F | °C
As of 12:35 AM on Friday 28 Nov 2014 (Local Time) from K7W4 Reporting Station
Broken Clouds Broken Clouds  
Wind Chill: 29°   Ceiling: 4700
Heat Index: 29°   Visibility: 10mi
Dew Point: 26°   Wind: 0mph
Humidity: 90%   Direction: NA
Pressure: 30.2"   Gusts: NA
Location:  37.71°N, 77.84°W
Report Text: K7W4 280535Z AUTO 00000KT 10SM BKN047 M02/M03 A3020 RMK AO1 T10171031
Loading
Personal Weather Stations






























Interactive Weather Map New forecast layout! Learn more

10-Day Weather Forecast

Advertisements
Track Severe Weather on mobile